createdAt,value
2023-04-02T00:00:51.811Z,35
2023-04-02T00:10:52.192Z,51
2023-04-02T00:20:53.125Z,70
2023-04-02T00:30:53.710Z,48
2023-04-02T00:40:53.991Z,40
2023-04-02T00:50:54.816Z,35
2023-04-02T01:00:55.301Z,75
2023-04-02T01:20:55.863Z,54
2023-04-02T01:50:58.456Z,55
2023-04-02T02:10:59.214Z,54
2023-04-02T02:31:00.168Z,47
2023-04-02T02:41:01.109Z,62
2023-04-02T02:51:01.899Z,54
2023-04-02T03:01:02.178Z,19
2023-04-02T03:11:02.937Z,59
2023-04-02T03:41:05.046Z,70
2023-04-02T03:51:05.385Z,58
2023-04-02T04:01:06.122Z,71
2023-04-02T04:11:06.608Z,78
2023-04-02T04:21:07.053Z,71
2023-04-02T04:41:07.427Z,59
2023-04-02T04:51:07.887Z,74
2023-04-02T05:01:08.125Z,65
2023-04-02T05:21:10.069Z,66
2023-04-02T05:51:10.612Z,62
2023-04-02T06:11:11.944Z,44
2023-04-02T06:21:12.823Z,46
2023-04-02T06:31:18.929Z,62
2023-04-02T06:51:13.626Z,56
2023-04-02T07:01:14.010Z,53
2023-04-02T11:21:29.002Z,0
2023-04-02T11:41:30.327Z,0
2023-04-02T11:51:30.941Z,0
2023-04-02T12:01:31.880Z,0
2023-04-02T12:21:33.350Z,0
2023-04-02T12:41:34.164Z,14
2023-04-02T12:51:34.770Z,29
2023-04-02T13:01:35.039Z,20
2023-04-02T13:31:36.161Z,100
2023-04-02T14:01:37.497Z,93
2023-04-02T14:11:37.685Z,92
2023-04-02T14:21:37.941Z,82
2023-04-02T14:31:38.443Z,75
2023-04-02T14:41:38.916Z,96
2023-04-02T14:51:39.919Z,100
2023-04-02T15:11:41.129Z,96
2023-04-02T15:21:55.553Z,99
2023-04-02T15:31:42.449Z,100
2023-04-02T15:41:43.470Z,86
2023-04-02T15:51:43.777Z,100
2023-04-02T16:01:44.015Z,100
2023-04-02T16:21:44.883Z,100
2023-04-02T16:31:45.619Z,99
2023-04-02T16:41:45.759Z,100
2023-04-02T17:01:46.466Z,100
2023-04-02T17:11:47.495Z,100
2023-04-02T17:21:48.286Z,100
2023-04-02T17:31:49.215Z,100
2023-04-02T17:41:50.150Z,100
2023-04-02T17:51:51.052Z,92
2023-04-02T18:11:52.347Z,67
2023-04-02T18:31:53.180Z,51
2023-04-02T18:41:53.374Z,39
2023-04-02T18:51:54.192Z,23
2023-04-02T19:01:54.586Z,0
2023-04-02T19:11:55.022Z,0
2023-04-02T19:21:55.412Z,0
2023-04-02T19:31:56.105Z,0
2023-04-02T19:41:56.413Z,0
2023-04-02T19:51:57.297Z,99
2023-04-02T20:01:57.626Z,92
2023-04-02T20:21:58.649Z,60
2023-04-02T20:31:58.875Z,57
2023-04-02T20:41:59.460Z,51
2023-04-02T20:51:59.961Z,41
2023-04-02T21:02:00.275Z,38
2023-04-02T21:12:00.537Z,14
2023-04-02T21:22:01.681Z,22
2023-04-02T21:32:05.663Z,18
2023-04-02T21:42:01.834Z,34
2023-04-02T21:52:02.583Z,47
2023-04-02T22:22:03.842Z,42
2023-04-02T22:32:04.933Z,60
2023-04-02T22:42:05.436Z,53
2023-04-02T22:52:14.277Z,83
2023-04-02T23:12:15.769Z,61
2023-04-02T23:32:17.549Z,64
2023-04-02T23:42:18.447Z,56
2023-04-02T23:52:19.507Z,65
